43G weather

Belleville Airport
Belleville, Michigan, United States

Public forecast

Using degrees Fahrenheit for public forecast. Weather courtesy of forecast.io.

METAR (pilot weather report)

Closest report is Willow Run Airport, 3.7 nm (6.9 km) N. Retrieved 2019/03/23 15:53 UTC (19 minutes ago):

KYIP 231553Z 32007KT 270V350 10SM CLR 03/M09 A3030 RMK AO2 SLP266 T00331089

TAF (pilot weather forecast)

Closest forecast is Willow Run Airport, 3.7 nm (6.9 km) N. Retrieved 2019/03/23 12:24 UTC (4 hours ago):

TAF KYIP 231123Z 2312/2412 30006KT P6SM SKC FM231600 27008KT P6SM SKC FM232200 22005KT P6SM SKC